sensor_id;sensor_type;location;lat;lon;timestamp;temperature;humidity
44431;DHT22;30135;47.866;-4.222;2023-04-30T00:01:48;14.80;98.00
44431;DHT22;30135;47.866;-4.222;2023-04-30T00:04:14;14.80;98.00
44431;DHT22;30135;47.866;-4.222;2023-04-30T00:06:40;14.80;98.00
44431;DHT22;30135;47.866;-4.222;2023-04-30T00:09:06;14.80;98.00
44431;DHT22;30135;47.866;-4.222;2023-04-30T00:11:32;14.80;98.00
44431;DHT22;30135;47.866;-4.222;2023-04-30T00:13:58;14.70;98.00
44431;DHT22;30135;47.866;-4.222;2023-04-30T00:16:26;14.80;98.00
44431;DHT22;30135;47.866;-4.222;2023-04-30T00:18:52;14.70;98.10
44431;DHT22;30135;47.866;-4.222;2023-04-30T00:21:18;14.70;98.10
44431;DHT22;30135;47.866;-4.222;2023-04-30T00:23:44;14.70;98.10
44431;DHT22;30135;47.866;-4.222;2023-04-30T00:26:10;14.70;98.10
44431;DHT22;30135;47.866;-4.222;2023-04-30T00:28:36;14.70;98.10
44431;DHT22;30135;47.866;-4.222;2023-04-30T00:31:02;14.70;98.10
44431;DHT22;30135;47.866;-4.222;2023-04-30T00:33:31;14.70;98.10
44431;DHT22;30135;47.866;-4.222;2023-04-30T00:35:57;14.70;98.10
44431;DHT22;30135;47.866;-4.222;2023-04-30T00:38:23;14.70;98.10
44431;DHT22;30135;47.866;-4.222;2023-04-30T00:40:52;14.70;98.10
44431;DHT22;30135;47.866;-4.222;2023-04-30T00:43:18;14.70;98.20
44431;DHT22;30135;47.866;-4.222;2023-04-30T00:45:44;14.70;98.20
44431;DHT22;30135;47.866;-4.222;2023-04-30T00:48:10;14.70;98.20
44431;DHT22;30135;47.866;-4.222;2023-04-30T00:50:37;14.70;98.20
44431;DHT22;30135;47.866;-4.222;2023-04-30T00:53:03;14.70;98.20
44431;DHT22;30135;47.866;-4.222;2023-04-30T00:55:29;14.70;98.20
44431;DHT22;30135;47.866;-4.222;2023-04-30T00:57:55;14.70;98.20
44431;DHT22;30135;47.866;-4.222;2023-04-30T01:00:24;14.70;98.20
44431;DHT22;30135;47.866;-4.222;2023-04-30T01:02:51;14.70;98.30
44431;DHT22;30135;47.866;-4.222;2023-04-30T01:05:18;14.70;98.30
44431;DHT22;30135;47.866;-4.222;2023-04-30T01:07:44;14.70;98.20
44431;DHT22;30135;47.866;-4.222;2023-04-30T01:10:14;14.70;98.20
44431;DHT22;30135;47.866;-4.222;2023-04-30T01:12:45;14.70;98.20
44431;DHT22;30135;47.866;-4.222;2023-04-30T01:15:43;14.70;98.20
44431;DHT22;30135;47.866;-4.222;2023-04-30T01:18:33;14.70;98.20
44431;DHT22;30135;47.866;-4.222;2023-04-30T01:21:05;14.70;98.20
44431;DHT22;30135;47.866;-4.222;2023-04-30T01:23:40;14.60;98.30
44431;DHT22;30135;47.866;-4.222;2023-04-30T01:29:45;14.70;98.40
44431;DHT22;30135;47.866;-4.222;2023-04-30T01:32:12;14.60;98.40
44431;DHT22;30135;47.866;-4.222;2023-04-30T01:34:38;14.60;98.40
44431;DHT22;30135;47.866;-4.222;2023-04-30T01:40:46;14.70;98.50
44431;DHT22;30135;47.866;-4.222;2023-04-30T01:44:08;14.60;98.50
44431;DHT22;30135;47.866;-4.222;2023-04-30T01:46:34;14.60;98.50
44431;DHT22;30135;47.866;-4.222;2023-04-30T01:49:20;14.60;98.60
44431;DHT22;30135;47.866;-4.222;2023-04-30T01:55:07;14.70;98.70
44431;DHT22;30135;47.866;-4.222;2023-04-30T01:57:51;14.70;98.70
44431;DHT22;30135;47.866;-4.222;2023-04-30T02:00:28;14.60;98.70
44431;DHT22;30135;47.866;-4.222;2023-04-30T02:02:58;14.60;98.80
44431;DHT22;30135;47.866;-4.222;2023-04-30T02:05:24;14.60;98.80
44431;DHT22;30135;47.866;-4.222;2023-04-30T02:07:51;14.70;98.90
44431;DHT22;30135;47.866;-4.222;2023-04-30T02:10:21;14.70;98.90
44431;DHT22;30135;47.866;-4.222;2023-04-30T02:12:48;14.70;98.90
44431;DHT22;30135;47.866;-4.222;2023-04-30T02:15:14;14.70;98.90
44431;DHT22;30135;47.866;-4.222;2023-04-30T02:17:40;14.70;98.90
44431;DHT22;30135;47.866;-4.222;2023-04-30T02:20:07;14.70;99.00
44431;DHT22;30135;47.866;-4.222;2023-04-30T02:22:34;14.70;99.30
44431;DHT22;30135;47.866;-4.222;2023-04-30T02:25:00;14.70;99.00
44431;DHT22;30135;47.866;-4.222;2023-04-30T02:27:31;14.70;99.00
44431;DHT22;30135;47.866;-4.222;2023-04-30T02:29:58;14.70;99.10
44431;DHT22;30135;47.866;-4.222;2023-04-30T02:32:25;14.70;99.10
44431;DHT22;30135;47.866;-4.222;2023-04-30T02:34:51;14.70;99.20
44431;DHT22;30135;47.866;-4.222;2023-04-30T02:37:17;14.70;99.30
44431;DHT22;30135;47.866;-4.222;2023-04-30T02:39:43;14.70;99.30
44431;DHT22;30135;47.866;-4.222;2023-04-30T02:42:09;14.70;99.40
44431;DHT22;30135;47.866;-4.222;2023-04-30T02:44:35;14.70;99.40
44431;DHT22;30135;47.866;-4.222;2023-04-30T02:47:01;14.70;99.40
44431;DHT22;30135;47.866;-4.222;2023-04-30T02:49:28;14.80;99.50
44431;DHT22;30135;47.866;-4.222;2023-04-30T02:51:54;14.70;99.50
44431;DHT22;30135;47.866;-4.222;2023-04-30T02:54:20;14.70;99.50
44431;DHT22;30135;47.866;-4.222;2023-04-30T02:56:46;14.70;99.60
44431;DHT22;30135;47.866;-4.222;2023-04-30T02:59:12;14.80;99.60
44431;DHT22;30135;47.866;-4.222;2023-04-30T03:01:40;14.70;99.50
44431;DHT22;30135;47.866;-4.222;2023-04-30T03:04:06;14.80;99.60
44431;DHT22;30135;47.866;-4.222;2023-04-30T03:06:32;14.80;99.60
44431;DHT22;30135;47.866;-4.222;2023-04-30T03:09:01;14.80;99.60
44431;DHT22;30135;47.866;-4.222;2023-04-30T03:11:28;14.80;99.60
44431;DHT22;30135;47.866;-4.222;2023-04-30T03:13:54;14.80;99.60
44431;DHT22;30135;47.866;-4.222;2023-04-30T03:16:20;14.80;99.60
44431;DHT22;30135;47.866;-4.222;2023-04-30T03:18:49;14.80;99.70
44431;DHT22;30135;47.866;-4.222;2023-04-30T03:21:15;14.70;99.70
44431;DHT22;30135;47.866;-4.222;2023-04-30T03:23:41;14.80;99.70
44431;DHT22;30135;47.866;-4.222;2023-04-30T03:26:07;14.80;99.70
44431;DHT22;30135;47.866;-4.222;2023-04-30T03:28:33;14.80;99.70
44431;DHT22;30135;47.866;-4.222;2023-04-30T03:31:00;14.80;99.70
44431;DHT22;30135;47.866;-4.222;2023-04-30T03:33:30;14.80;99.70
44431;DHT22;30135;47.866;-4.222;2023-04-30T03:35:57;14.80;99.70
44431;DHT22;30135;47.866;-4.222;2023-04-30T03:38:23;14.80;99.70
44431;DHT22;30135;47.866;-4.222;2023-04-30T03:40:49;14.80;99.70
44431;DHT22;30135;47.866;-4.222;2023-04-30T03:43:15;14.80;99.80
44431;DHT22;30135;47.866;-4.222;2023-04-30T03:45:41;14.80;99.80
44431;DHT22;30135;47.866;-4.222;2023-04-30T03:48:07;14.80;99.80
44431;DHT22;30135;47.866;-4.222;2023-04-30T03:50:34;14.80;99.80
44431;DHT22;30135;47.866;-4.222;2023-04-30T03:53:00;14.80;99.80
44431;DHT22;30135;47.866;-4.222;2023-04-30T03:55:26;14.80;99.90
44431;DHT22;30135;47.866;-4.222;2023-04-30T03:57:52;14.80;99.90
44431;DHT22;30135;47.866;-4.222;2023-04-30T04:00:18;14.80;99.90
44431;DHT22;30135;47.866;-4.222;2023-04-30T04:02:45;14.80;99.90
44431;DHT22;30135;47.866;-4.222;2023-04-30T04:05:11;14.80;99.90
44431;DHT22;30135;47.866;-4.222;2023-04-30T04:07:37;14.80;99.90
44431;DHT22;30135;47.866;-4.222;2023-04-30T04:10:03;14.80;99.90
44431;DHT22;30135;47.866;-4.222;2023-04-30T04:12:30;14.80;99.90
44431;DHT22;30135;47.866;-4.222;2023-04-30T04:14:56;14.70;99.90
44431;DHT22;30135;47.866;-4.222;2023-04-30T04:17:22;14.80;99.90
44431;DHT22;30135;47.866;-4.222;2023-04-30T04:19:48;14.80;99.90
44431;DHT22;30135;47.866;-4.222;2023-04-30T04:22:14;14.80;99.90
44431;DHT22;30135;47.866;-4.222;2023-04-30T04:24:40;14.80;99.90
44431;DHT22;30135;47.866;-4.222;2023-04-30T04:27:06;14.80;99.90
44431;DHT22;30135;47.866;-4.222;2023-04-30T04:29:32;14.80;99.90
44431;DHT22;30135;47.866;-4.222;2023-04-30T04:31:58;14.80;99.90
44431;DHT22;30135;47.866;-4.222;2023-04-30T04:34:27;14.80;99.90
44431;DHT22;30135;47.866;-4.222;2023-04-30T04:36:53;14.70;99.90
44431;DHT22;30135;47.866;-4.222;2023-04-30T04:39:19;14.80;99.90
44431;DHT22;30135;47.866;-4.222;2023-04-30T04:41:44;14.80;99.90
44431;DHT22;30135;47.866;-4.222;2023-04-30T04:44:11;14.80;99.90
44431;DHT22;30135;47.866;-4.222;2023-04-30T04:46:36;14.80;99.90
44431;DHT22;30135;47.866;-4.222;2023-04-30T04:49:03;14.80;99.90
44431;DHT22;30135;47.866;-4.222;2023-04-30T04:51:29;14.80;99.90
44431;DHT22;30135;47.866;-4.222;2023-04-30T04:53:57;14.80;99.90
44431;DHT22;30135;47.866;-4.222;2023-04-30T04:56:23;14.80;99.90
44431;DHT22;30135;47.866;-4.222;2023-04-30T04:58:49;14.80;99.90
44431;DHT22;30135;47.866;-4.222;2023-04-30T05:01:15;14.80;99.90
44431;DHT22;30135;47.866;-4.222;2023-04-30T05:03:41;14.80;99.90
44431;DHT22;30135;47.866;-4.222;2023-04-30T05:06:07;14.80;99.90
44431;DHT22;30135;47.866;-4.222;2023-04-30T05:08:33;14.80;99.90
44431;DHT22;30135;47.866;-4.222;2023-04-30T05:10:59;14.80;99.90
44431;DHT22;30135;47.866;-4.222;2023-04-30T05:13:26;14.80;99.90
44431;DHT22;30135;47.866;-4.222;2023-04-30T05:15:52;14.80;99.90
44431;DHT22;30135;47.866;-4.222;2023-04-30T05:18:19;14.80;99.90
44431;DHT22;30135;47.866;-4.222;2023-04-30T05:20:45;14.80;99.90
44431;DHT22;30135;47.866;-4.222;2023-04-30T05:23:11;14.80;99.90
44431;DHT22;30135;47.866;-4.222;2023-04-30T05:25:37;14.80;99.90
44431;DHT22;30135;47.866;-4.222;2023-04-30T05:28:05;14.80;99.90
44431;DHT22;30135;47.866;-4.222;2023-04-30T05:30:31;14.80;99.90
44431;DHT22;30135;47.866;-4.222;2023-04-30T05:32:58;14.80;99.90
44431;DHT22;30135;47.866;-4.222;2023-04-30T05:35:24;14.80;99.90
44431;DHT22;30135;47.866;-4.222;2023-04-30T05:37:50;14.80;99.90
44431;DHT22;30135;47.866;-4.222;2023-04-30T05:40:16;14.80;99.90
44431;DHT22;30135;47.866;-4.222;2023-04-30T05:42:42;14.80;99.90
44431;DHT22;30135;47.866;-4.222;2023-04-30T05:45:12;14.80;99.90
44431;DHT22;30135;47.866;-4.222;2023-04-30T05:47:40;14.80;99.90
44431;DHT22;30135;47.866;-4.222;2023-04-30T05:50:07;14.80;99.90
44431;DHT22;30135;47.866;-4.222;2023-04-30T05:52:34;14.80;99.90
44431;DHT22;30135;47.866;-4.222;2023-04-30T05:55:00;14.80;99.90
44431;DHT22;30135;47.866;-4.222;2023-04-30T05:57:26;14.80;99.90
44431;DHT22;30135;47.866;-4.222;2023-04-30T05:59:52;14.80;99.90
44431;DHT22;30135;47.866;-4.222;2023-04-30T06:02:19;14.80;99.90
44431;DHT22;30135;47.866;-4.222;2023-04-30T06:04:46;14.80;99.90
44431;DHT22;30135;47.866;-4.222;2023-04-30T06:07:12;14.80;99.90
44431;DHT22;30135;47.866;-4.222;2023-04-30T06:09:38;14.80;99.90
44431;DHT22;30135;47.866;-4.222;2023-04-30T06:12:04;14.80;99.90
44431;DHT22;30135;47.866;-4.222;2023-04-30T06:14:30;14.80;99.90
44431;DHT22;30135;47.866;-4.222;2023-04-30T06:16:56;14.80;99.90
44431;DHT22;30135;47.866;-4.222;2023-04-30T06:19:22;14.80;99.90
44431;DHT22;30135;47.866;-4.222;2023-04-30T06:21:48;14.80;99.90
44431;DHT22;30135;47.866;-4.222;2023-04-30T06:24:14;14.80;99.90
44431;DHT22;30135;47.866;-4.222;2023-04-30T06:26:40;14.80;99.90
44431;DHT22;30135;47.866;-4.222;2023-04-30T06:29:06;14.80;99.90
44431;DHT22;30135;47.866;-4.222;2023-04-30T06:31:32;14.80;99.90
44431;DHT22;30135;47.866;-4.222;2023-04-30T06:33:58;14.80;99.90
44431;DHT22;30135;47.866;-4.222;2023-04-30T06:36:25;14.80;99.90
44431;DHT22;30135;47.866;-4.222;2023-04-30T06:38:51;14.80;99.90
44431;DHT22;30135;47.866;-4.222;2023-04-30T06:41:17;14.80;99.90
44431;DHT22;30135;47.866;-4.222;2023-04-30T06:43:43;14.80;99.90
44431;DHT22;30135;47.866;-4.222;2023-04-30T06:46:09;14.80;99.90
44431;DHT22;30135;47.866;-4.222;2023-04-30T06:48:36;14.80;99.90
44431;DHT22;30135;47.866;-4.222;2023-04-30T06:51:01;14.80;99.90
44431;DHT22;30135;47.866;-4.222;2023-04-30T06:53:27;14.80;99.90
44431;DHT22;30135;47.866;-4.222;2023-04-30T06:55:54;14.80;99.90
44431;DHT22;30135;47.866;-4.222;2023-04-30T06:58:20;14.80;99.90
44431;DHT22;30135;47.866;-4.222;2023-04-30T07:00:46;14.80;99.90
44431;DHT22;30135;47.866;-4.222;2023-04-30T07:03:12;14.80;99.90
44431;DHT22;30135;47.866;-4.222;2023-04-30T07:05:39;14.80;99.90
44431;DHT22;30135;47.866;-4.222;2023-04-30T07:08:06;14.80;99.90
44431;DHT22;30135;47.866;-4.222;2023-04-30T07:10:32;14.80;99.90
44431;DHT22;30135;47.866;-4.222;2023-04-30T07:12:58;14.80;99.90
44431;DHT22;30135;47.866;-4.222;2023-04-30T07:15:25;14.80;99.90
44431;DHT22;30135;47.866;-4.222;2023-04-30T07:17:51;14.80;99.90
44431;DHT22;30135;47.866;-4.222;2023-04-30T07:20:17;14.80;99.90
44431;DHT22;30135;47.866;-4.222;2023-04-30T07:22:43;14.80;99.90
44431;DHT22;30135;47.866;-4.222;2023-04-30T07:25:15;14.80;99.90
44431;DHT22;30135;47.866;-4.222;2023-04-30T07:27:41;14.80;99.90
44431;DHT22;30135;47.866;-4.222;2023-04-30T07:30:08;14.80;99.90
44431;DHT22;30135;47.866;-4.222;2023-04-30T07:32:37;14.80;99.90
44431;DHT22;30135;47.866;-4.222;2023-04-30T07:35:05;14.80;99.90
44431;DHT22;30135;47.866;-4.222;2023-04-30T07:37:32;14.80;99.90
44431;DHT22;30135;47.866;-4.222;2023-04-30T07:39:58;14.80;99.90
44431;DHT22;30135;47.866;-4.222;2023-04-30T07:42:24;14.80;99.90
44431;DHT22;30135;47.866;-4.222;2023-04-30T07:44:51;14.80;99.90
44431;DHT22;30135;47.866;-4.222;2023-04-30T07:47:17;14.80;99.90
44431;DHT22;30135;47.866;-4.222;2023-04-30T07:49:45;14.80;99.90
44431;DHT22;30135;47.866;-4.222;2023-04-30T07:52:12;14.80;99.90
44431;DHT22;30135;47.866;-4.222;2023-04-30T07:54:39;14.80;99.90
44431;DHT22;30135;47.866;-4.222;2023-04-30T07:57:05;14.80;99.90
44431;DHT22;30135;47.866;-4.222;2023-04-30T07:59:38;14.80;99.90
44431;DHT22;30135;47.866;-4.222;2023-04-30T08:02:04;14.90;99.90
44431;DHT22;30135;47.866;-4.222;2023-04-30T08:04:30;14.90;99.90
44431;DHT22;30135;47.866;-4.222;2023-04-30T08:06:56;14.90;99.90
44431;DHT22;30135;47.866;-4.222;2023-04-30T08:09:22;14.90;99.90
44431;DHT22;30135;47.866;-4.222;2023-04-30T08:11:48;14.90;99.90
44431;DHT22;30135;47.866;-4.222;2023-04-30T08:14:14;15.00;99.90
44431;DHT22;30135;47.866;-4.222;2023-04-30T08:16:40;15.00;99.90
44431;DHT22;30135;47.866;-4.222;2023-04-30T08:19:06;15.00;99.90
44431;DHT22;30135;47.866;-4.222;2023-04-30T08:21:32;15.00;99.90
44431;DHT22;30135;47.866;-4.222;2023-04-30T08:23:58;15.00;99.90
44431;DHT22;30135;47.866;-4.222;2023-04-30T08:26:24;15.10;99.90
44431;DHT22;30135;47.866;-4.222;2023-04-30T08:28:50;15.00;99.90
44431;DHT22;30135;47.866;-4.222;2023-04-30T08:31:17;15.10;99.90
44431;DHT22;30135;47.866;-4.222;2023-04-30T08:33:42;15.10;99.90
44431;DHT22;30135;47.866;-4.222;2023-04-30T08:36:08;15.10;99.90
44431;DHT22;30135;47.866;-4.222;2023-04-30T08:38:34;15.10;99.90
44431;DHT22;30135;47.866;-4.222;2023-04-30T08:41:10;15.20;99.90
44431;DHT22;30135;47.866;-4.222;2023-04-30T08:43:38;15.20;99.90
44431;DHT22;30135;47.866;-4.222;2023-04-30T08:46:05;15.20;99.90
44431;DHT22;30135;47.866;-4.222;2023-04-30T08:48:31;15.20;99.90
44431;DHT22;30135;47.866;-4.222;2023-04-30T08:51:01;15.20;99.90
44431;DHT22;30135;47.866;-4.222;2023-04-30T08:53:34;15.30;99.90
44431;DHT22;30135;47.866;-4.222;2023-04-30T08:56:02;15.30;99.90
44431;DHT22;30135;47.866;-4.222;2023-04-30T08:58:29;15.30;99.90
44431;DHT22;30135;47.866;-4.222;2023-04-30T09:00:57;15.30;99.90
44431;DHT22;30135;47.866;-4.222;2023-04-30T09:03:24;15.30;99.90
44431;DHT22;30135;47.866;-4.222;2023-04-30T09:05:50;15.40;99.90
44431;DHT22;30135;47.866;-4.222;2023-04-30T09:08:17;15.40;99.90
44431;DHT22;30135;47.866;-4.222;2023-04-30T09:10:45;15.40;99.90
44431;DHT22;30135;47.866;-4.222;2023-04-30T09:13:11;15.50;99.90
44431;DHT22;30135;47.866;-4.222;2023-04-30T09:15:38;15.50;99.90
44431;DHT22;30135;47.866;-4.222;2023-04-30T09:18:13;15.50;99.80
44431;DHT22;30135;47.866;-4.222;2023-04-30T09:20:54;15.50;99.80
44431;DHT22;30135;47.866;-4.222;2023-04-30T09:23:26;15.50;99.80
44431;DHT22;30135;47.866;-4.222;2023-04-30T09:25:52;15.60;99.80
44431;DHT22;30135;47.866;-4.222;2023-04-30T09:28:19;15.60;99.70
44431;DHT22;30135;47.866;-4.222;2023-04-30T09:30:51;15.60;99.60
44431;DHT22;30135;47.866;-4.222;2023-04-30T09:33:18;15.60;99.50
44431;DHT22;30135;47.866;-4.222;2023-04-30T09:35:44;15.60;99.50
44431;DHT22;30135;47.866;-4.222;2023-04-30T09:38:30;15.60;99.40
44431;DHT22;30135;47.866;-4.222;2023-04-30T09:40:58;15.60;99.20
44431;DHT22;30135;47.866;-4.222;2023-04-30T09:43:29;15.60;99.20
44431;DHT22;30135;47.866;-4.222;2023-04-30T09:45:57;15.60;99.30
44431;DHT22;30135;47.866;-4.222;2023-04-30T09:48:25;15.60;99.20
44431;DHT22;30135;47.866;-4.222;2023-04-30T09:50:54;15.60;99.20
44431;DHT22;30135;47.866;-4.222;2023-04-30T09:53:20;15.60;99.20
44431;DHT22;30135;47.866;-4.222;2023-04-30T09:55:49;15.60;99.30
44431;DHT22;30135;47.866;-4.222;2023-04-30T09:58:17;15.60;99.30
44431;DHT22;30135;47.866;-4.222;2023-04-30T10:00:45;15.70;99.20
44431;DHT22;30135;47.866;-4.222;2023-04-30T10:03:13;15.60;99.20
44431;DHT22;30135;47.866;-4.222;2023-04-30T10:05:42;15.70;99.20
44431;DHT22;30135;47.866;-4.222;2023-04-30T10:08:29;15.70;99.20
44431;DHT22;30135;47.866;-4.222;2023-04-30T10:11:04;15.70;99.20
44431;DHT22;30135;47.866;-4.222;2023-04-30T10:13:37;15.70;99.30
44431;DHT22;30135;47.866;-4.222;2023-04-30T10:16:18;15.80;99.20
44431;DHT22;30135;47.866;-4.222;2023-04-30T10:18:51;15.80;99.20
44431;DHT22;30135;47.866;-4.222;2023-04-30T10:21:22;15.90;99.30
44431;DHT22;30135;47.866;-4.222;2023-04-30T10:23:50;15.90;99.30
44431;DHT22;30135;47.866;-4.222;2023-04-30T10:26:16;15.90;99.20
44431;DHT22;30135;47.866;-4.222;2023-04-30T10:28:43;15.90;99.10
44431;DHT22;30135;47.866;-4.222;2023-04-30T10:31:11;16.00;99.10
44431;DHT22;30135;47.866;-4.222;2023-04-30T10:33:51;16.00;99.00
44431;DHT22;30135;47.866;-4.222;2023-04-30T10:36:28;16.00;98.80
44431;DHT22;30135;47.866;-4.222;2023-04-30T10:39:04;16.00;99.10
44431;DHT22;30135;47.866;-4.222;2023-04-30T10:41:30;16.00;98.70
44431;DHT22;30135;47.866;-4.222;2023-04-30T10:43:57;16.00;98.70
44431;DHT22;30135;47.866;-4.222;2023-04-30T10:46:26;16.00;98.60
44431;DHT22;30135;47.866;-4.222;2023-04-30T10:48:54;16.00;98.40
44431;DHT22;30135;47.866;-4.222;2023-04-30T10:51:20;16.00;98.60
44431;DHT22;30135;47.866;-4.222;2023-04-30T10:53:50;16.00;98.40
44431;DHT22;30135;47.866;-4.222;2023-04-30T10:56:32;16.00;98.40
44431;DHT22;30135;47.866;-4.222;2023-04-30T10:59:00;16.00;98.20
44431;DHT22;30135;47.866;-4.222;2023-04-30T11:01:32;16.00;98.20
44431;DHT22;30135;47.866;-4.222;2023-04-30T11:04:22;16.00;98.20
44431;DHT22;30135;47.866;-4.222;2023-04-30T11:09:43;16.00;98.20
44431;DHT22;30135;47.866;-4.222;2023-04-30T11:12:20;16.10;98.20
44431;DHT22;30135;47.866;-4.222;2023-04-30T11:14:53;16.10;98.20
44431;DHT22;30135;47.866;-4.222;2023-04-30T11:17:26;16.10;97.70
44431;DHT22;30135;47.866;-4.222;2023-04-30T11:19:53;16.10;98.10
44431;DHT22;30135;47.866;-4.222;2023-04-30T11:22:29;16.10;98.10
44431;DHT22;30135;47.866;-4.222;2023-04-30T11:25:12;16.10;98.10
44431;DHT22;30135;47.866;-4.222;2023-04-30T11:27:44;16.20;97.90
44431;DHT22;30135;47.866;-4.222;2023-04-30T11:30:15;16.20;97.90
44431;DHT22;30135;47.866;-4.222;2023-04-30T11:32:46;16.20;97.70
44431;DHT22;30135;47.866;-4.222;2023-04-30T11:35:16;16.20;97.70
44431;DHT22;30135;47.866;-4.222;2023-04-30T11:37:44;16.20;97.60
44431;DHT22;30135;47.866;-4.222;2023-04-30T11:40:14;16.20;97.60
44431;DHT22;30135;47.866;-4.222;2023-04-30T11:42:41;16.20;97.50
44431;DHT22;30135;47.866;-4.222;2023-04-30T11:45:16;16.30;97.40
44431;DHT22;30135;47.866;-4.222;2023-04-30T11:47:49;16.30;97.40
44431;DHT22;30135;47.866;-4.222;2023-04-30T11:50:21;16.30;97.40
44431;DHT22;30135;47.866;-4.222;2023-04-30T11:52:56;16.40;97.30
44431;DHT22;30135;47.866;-4.222;2023-04-30T11:55:24;16.50;97.30
44431;DHT22;30135;47.866;-4.222;2023-04-30T11:57:52;16.60;97.20
44431;DHT22;30135;47.866;-4.222;2023-04-30T12:00:28;16.60;97.20
44431;DHT22;30135;47.866;-4.222;2023-04-30T12:02:55;16.70;97.10
44431;DHT22;30135;47.866;-4.222;2023-04-30T12:05:25;16.70;96.80
44431;DHT22;30135;47.866;-4.222;2023-04-30T12:07:56;16.80;96.60
44431;DHT22;30135;47.866;-4.222;2023-04-30T12:10:24;16.80;96.60
44431;DHT22;30135;47.866;-4.222;2023-04-30T12:12:53;16.80;96.60
44431;DHT22;30135;47.866;-4.222;2023-04-30T12:15:22;16.80;96.50
44431;DHT22;30135;47.866;-4.222;2023-04-30T12:17:52;16.90;96.50
44431;DHT22;30135;47.866;-4.222;2023-04-30T12:20:20;16.90;96.40
44431;DHT22;30135;47.866;-4.222;2023-04-30T12:22:47;16.90;96.40
44431;DHT22;30135;47.866;-4.222;2023-04-30T12:25:15;17.00;96.50
44431;DHT22;30135;47.866;-4.222;2023-04-30T12:27:50;17.00;96.40
44431;DHT22;30135;47.866;-4.222;2023-04-30T12:30:24;17.00;96.30
44431;DHT22;30135;47.866;-4.222;2023-04-30T12:32:58;17.00;96.00
44431;DHT22;30135;47.866;-4.222;2023-04-30T12:35:28;17.00;96.00
44431;DHT22;30135;47.866;-4.222;2023-04-30T12:38:03;17.10;96.00
44431;DHT22;30135;47.866;-4.222;2023-04-30T12:40:31;17.10;95.90
44431;DHT22;30135;47.866;-4.222;2023-04-30T12:43:02;17.20;96.00
44431;DHT22;30135;47.866;-4.222;2023-04-30T12:48:20;17.30;96.00
44431;DHT22;30135;47.866;-4.222;2023-04-30T12:51:01;17.40;96.00
44431;DHT22;30135;47.866;-4.222;2023-04-30T12:53:27;17.40;96.00
44431;DHT22;30135;47.866;-4.222;2023-04-30T12:56:14;17.50;95.80
44431;DHT22;30135;47.866;-4.222;2023-04-30T12:58:46;17.60;95.90
44431;DHT22;30135;47.866;-4.222;2023-04-30T13:01:21;17.70;95.80
44431;DHT22;30135;47.866;-4.222;2023-04-30T13:03:50;17.80;95.80
44431;DHT22;30135;47.866;-4.222;2023-04-30T13:06:17;17.90;95.70
44431;DHT22;30135;47.866;-4.222;2023-04-30T13:08:46;17.90;95.30
44431;DHT22;30135;47.866;-4.222;2023-04-30T13:11:12;17.90;94.90
44431;DHT22;30135;47.866;-4.222;2023-04-30T13:13:38;17.90;94.70
44431;DHT22;30135;47.866;-4.222;2023-04-30T13:16:04;17.90;94.60
44431;DHT22;30135;47.866;-4.222;2023-04-30T13:18:31;17.90;94.50
44431;DHT22;30135;47.866;-4.222;2023-04-30T13:20:57;17.90;94.50
44431;DHT22;30135;47.866;-4.222;2023-04-30T13:23:30;17.80;94.40
44431;DHT22;30135;47.866;-4.222;2023-04-30T13:25:56;17.90;94.60
44431;DHT22;30135;47.866;-4.222;2023-04-30T13:28:22;17.80;94.40
44431;DHT22;30135;47.866;-4.222;2023-04-30T13:30:48;17.80;94.30
44431;DHT22;30135;47.866;-4.222;2023-04-30T13:33:14;17.80;94.30
44431;DHT22;30135;47.866;-4.222;2023-04-30T13:35:41;17.80;94.10
44431;DHT22;30135;47.866;-4.222;2023-04-30T13:38:07;17.80;94.00
44431;DHT22;30135;47.866;-4.222;2023-04-30T13:40:33;17.90;94.10
44431;DHT22;30135;47.866;-4.222;2023-04-30T13:42:59;17.80;93.90
44431;DHT22;30135;47.866;-4.222;2023-04-30T13:45:25;17.80;93.80
44431;DHT22;30135;47.866;-4.222;2023-04-30T13:47:51;17.80;93.80
44431;DHT22;30135;47.866;-4.222;2023-04-30T13:50:17;17.80;93.90
44431;DHT22;30135;47.866;-4.222;2023-04-30T13:52:43;17.80;94.20
44431;DHT22;30135;47.866;-4.222;2023-04-30T13:55:09;17.80;93.90
44431;DHT22;30135;47.866;-4.222;2023-04-30T13:57:35;17.80;93.80
44431;DHT22;30135;47.866;-4.222;2023-04-30T14:00:01;17.80;93.80
44431;DHT22;30135;47.866;-4.222;2023-04-30T14:02:27;17.80;93.70
44431;DHT22;30135;47.866;-4.222;2023-04-30T14:04:53;17.80;93.70
44431;DHT22;30135;47.866;-4.222;2023-04-30T14:07:20;17.70;93.60
44431;DHT22;30135;47.866;-4.222;2023-04-30T14:09:46;17.70;93.50
44431;DHT22;30135;47.866;-4.222;2023-04-30T14:12:12;17.60;93.50
44431;DHT22;30135;47.866;-4.222;2023-04-30T14:14:38;17.60;93.40
44431;DHT22;30135;47.866;-4.222;2023-04-30T14:17:04;17.60;93.50
44431;DHT22;30135;47.866;-4.222;2023-04-30T14:19:30;17.50;93.40
44431;DHT22;30135;47.866;-4.222;2023-04-30T14:21:56;17.50;93.40
44431;DHT22;30135;47.866;-4.222;2023-04-30T14:24:22;17.50;93.40
44431;DHT22;30135;47.866;-4.222;2023-04-30T14:26:48;17.40;93.50
44431;DHT22;30135;47.866;-4.222;2023-04-30T14:29:14;17.40;93.50
44431;DHT22;30135;47.866;-4.222;2023-04-30T14:31:40;17.40;93.50
44431;DHT22;30135;47.866;-4.222;2023-04-30T14:34:06;17.30;93.60
44431;DHT22;30135;47.866;-4.222;2023-04-30T14:36:33;17.30;93.70
44431;DHT22;30135;47.866;-4.222;2023-04-30T14:39:00;17.30;93.80
44431;DHT22;30135;47.866;-4.222;2023-04-30T14:41:28;17.30;93.90
44431;DHT22;30135;47.866;-4.222;2023-04-30T14:43:54;17.30;93.90
44431;DHT22;30135;47.866;-4.222;2023-04-30T14:46:20;17.30;93.80
44431;DHT22;30135;47.866;-4.222;2023-04-30T14:48:46;17.30;93.80
44431;DHT22;30135;47.866;-4.222;2023-04-30T14:51:12;17.30;93.80
44431;DHT22;30135;47.866;-4.222;2023-04-30T14:53:38;17.20;93.80
44431;DHT22;30135;47.866;-4.222;2023-04-30T14:56:04;17.20;93.90
44431;DHT22;30135;47.866;-4.222;2023-04-30T14:58:31;17.20;94.00
44431;DHT22;30135;47.866;-4.222;2023-04-30T15:00:57;17.20;94.10
44431;DHT22;30135;47.866;-4.222;2023-04-30T15:03:23;17.20;94.20
44431;DHT22;30135;47.866;-4.222;2023-04-30T15:05:49;17.20;94.20
44431;DHT22;30135;47.866;-4.222;2023-04-30T15:08:16;17.20;94.20
44431;DHT22;30135;47.866;-4.222;2023-04-30T15:10:42;17.20;94.30
44431;DHT22;30135;47.866;-4.222;2023-04-30T15:13:08;17.10;94.20
44431;DHT22;30135;47.866;-4.222;2023-04-30T15:15:34;17.10;94.20
44431;DHT22;30135;47.866;-4.222;2023-04-30T15:18:02;17.10;94.30
44431;DHT22;30135;47.866;-4.222;2023-04-30T15:20:30;17.10;94.30
44431;DHT22;30135;47.866;-4.222;2023-04-30T15:22:56;17.10;94.40
44431;DHT22;30135;47.866;-4.222;2023-04-30T15:25:23;17.10;94.50
44431;DHT22;30135;47.866;-4.222;2023-04-30T15:27:49;17.10;94.50
44431;DHT22;30135;47.866;-4.222;2023-04-30T15:30:20;17.10;94.50
44431;DHT22;30135;47.866;-4.222;2023-04-30T15:32:46;17.10;94.60
44431;DHT22;30135;47.866;-4.222;2023-04-30T15:35:12;17.20;94.70
44431;DHT22;30135;47.866;-4.222;2023-04-30T15:37:38;17.20;94.70